This is the latest recevied weather packets stored in our database for station/object AG1T-20. If no packets are shown the sender has not sent any weather packets the latest 10 day(s).
| Time | Temp. | Humidity | Pressure | Rain* | Wind** | Luminosity | Snow |
|---|---|---|---|---|---|---|---|
| 1787733004 | 15.56° C | 64% | 1024.1 hPa | 0 mm | - | 0 W/m² | - |
| 1787732405 | 16.11° C | 61% | 1024.1 hPa | 0 mm | - | 0 W/m² | - |
| 1787731805 | 17.22° C | 56% | 1024.1 hPa | 0 mm | - | 0 W/m² | - |
| 1787731205 | 16.67° C | 54% | 1024.1 hPa | 0 mm | - | 0 W/m² | - |
| 1787730605 | 17.78° C | 57% | 1024.4 hPa | 0 mm | - | 0 W/m² | - |
| 1787730005 | 18.33° C | 53% | 1024.4 hPa | 0 mm | - | 0 W/m² | - |
| 1787729405 | 18.33° C | 52% | 1024.4 hPa | 0 mm | - | 0 W/m² | - |
| 1787728805 | 18.89° C | 50% | 1024.4 hPa | 0 mm | - | 0 W/m² | - |
| 1787728205 | 18.89° C | 51% | 1024.4 hPa | 0 mm | - | 0 W/m² | - |
| 1787727605 | 21.11° C | 40% | 1024.4 hPa | 0 mm | - | 0 W/m² | - |
| 1787727004 | 20.56° C | 42% | 1024.3 hPa | 0 mm | - | 0 W/m² | - |
| 1787726405 | 20.56° C | 44% | 1024.3 hPa | 0 mm | - | 0 W/m² | - |
| 1787725805 | 21.67° C | 41% | 1024.3 hPa | 0 mm | - | 0 W/m² | - |
| 1787725205 | 21.67° C | 41% | 1024.3 hPa | 0 mm | - | 0 W/m² | - |
| 1787724604 | 21.11° C | 44% | 1024.3 hPa | 0 mm | - | 0 W/m² | - |
| 1787724005 | 20.56° C | 46% | 1024.3 hPa | 0 mm | - | 0 W/m² | - |
| 1787723405 | 20° C | 49% | 1024.7 hPa | 0 mm | - | 0 W/m² | - |
| 1787722805 | 20° C | 48% | 1024.7 hPa | 0 mm | - | 0 W/m² | - |
| 1787722205 | 20.56° C | 47% | 1024.7 hPa | 0 mm | - | 0 W/m² | - |
| 1787721605 | 21.11° C | 45% | 1024.7 hPa | 0 mm | - | 0 W/m² | - |
| 1787721005 | 21.11° C | 45% | 1024.7 hPa | 0 mm | - | 0 W/m² | - |
| 1787720405 | 21.11° C | 45% | 1024.7 hPa | 0 mm | - | 0 W/m² | - |
| 1787719805 | 21.67° C | 44% | 1024.8 hPa | 0 mm | - | 0 W/m² | - |
| 1787719204 | 21.67° C | 43% | 1024.8 hPa | 0 mm | - | 0 W/m² | - |
| 1787718604 | 21.67° C | 45% | 1024.8 hPa | 0 mm | - | 0 W/m² | - |
* Rain latest hour (hover to see other rain measurements)
** Current wind speed in m/s (hover to see current wind gust speed)